sensor_id;sensor_type;location;lat;lon;timestamp;temperature;humidity
75442;DHT22;64019;48.312;14.226;2023-12-07T00:01:09;1.70;99.90
75442;DHT22;64019;48.312;14.226;2023-12-07T00:03:35;1.70;99.90
75442;DHT22;64019;48.312;14.226;2023-12-07T00:06:01;1.80;99.90
75442;DHT22;64019;48.312;14.226;2023-12-07T00:08:26;1.70;99.90
75442;DHT22;64019;48.312;14.226;2023-12-07T00:10:52;1.70;99.90
75442;DHT22;64019;48.312;14.226;2023-12-07T00:13:18;1.70;99.90
75442;DHT22;64019;48.312;14.226;2023-12-07T00:15:43;1.70;99.90
75442;DHT22;64019;48.312;14.226;2023-12-07T00:18:09;1.70;99.90
75442;DHT22;64019;48.312;14.226;2023-12-07T00:20:35;1.70;99.90
75442;DHT22;64019;48.312;14.226;2023-12-07T00:23:00;1.70;99.90
75442;DHT22;64019;48.312;14.226;2023-12-07T00:25:26;1.70;99.90
75442;DHT22;64019;48.312;14.226;2023-12-07T00:27:52;1.70;99.90
75442;DHT22;64019;48.312;14.226;2023-12-07T00:30:17;1.80;99.90
75442;DHT22;64019;48.312;14.226;2023-12-07T00:32:43;1.70;99.90
75442;DHT22;64019;48.312;14.226;2023-12-07T00:35:10;1.70;99.90
75442;DHT22;64019;48.312;14.226;2023-12-07T00:37:36;1.70;99.90
75442;DHT22;64019;48.312;14.226;2023-12-07T00:40:01;1.80;99.90
75442;DHT22;64019;48.312;14.226;2023-12-07T00:42:27;1.80;99.90
75442;DHT22;64019;48.312;14.226;2023-12-07T00:44:53;1.90;99.90
75442;DHT22;64019;48.312;14.226;2023-12-07T00:47:19;1.80;99.90
75442;DHT22;64019;48.312;14.226;2023-12-07T00:49:45;1.80;99.90
75442;DHT22;64019;48.312;14.226;2023-12-07T00:52:10;1.90;99.90
75442;DHT22;64019;48.312;14.226;2023-12-07T00:54:36;1.90;99.90
75442;DHT22;64019;48.312;14.226;2023-12-07T00:57:02;1.80;99.90
75442;DHT22;64019;48.312;14.226;2023-12-07T00:59:27;1.80;99.90
75442;DHT22;64019;48.312;14.226;2023-12-07T01:02:05;1.90;99.90
75442;DHT22;64019;48.312;14.226;2023-12-07T01:04:31;1.90;99.90
75442;DHT22;64019;48.312;14.226;2023-12-07T01:06:57;1.90;99.90
75442;DHT22;64019;48.312;14.226;2023-12-07T01:09:23;2.00;99.90
75442;DHT22;64019;48.312;14.226;2023-12-07T01:11:49;2.00;99.90
75442;DHT22;64019;48.312;14.226;2023-12-07T01:14:15;2.00;99.90
75442;DHT22;64019;48.312;14.226;2023-12-07T01:16:42;2.10;99.90
75442;DHT22;64019;48.312;14.226;2023-12-07T01:19:08;2.10;99.90
75442;DHT22;64019;48.312;14.226;2023-12-07T01:21:34;2.10;99.90
75442;DHT22;64019;48.312;14.226;2023-12-07T01:23:59;2.10;99.90
75442;DHT22;64019;48.312;14.226;2023-12-07T01:26:25;2.10;99.90
75442;DHT22;64019;48.312;14.226;2023-12-07T01:28:51;2.10;99.90
75442;DHT22;64019;48.312;14.226;2023-12-07T01:31:17;2.10;99.90
75442;DHT22;64019;48.312;14.226;2023-12-07T01:33:43;2.10;99.90
75442;DHT22;64019;48.312;14.226;2023-12-07T01:36:10;2.10;99.90
75442;DHT22;64019;48.312;14.226;2023-12-07T01:38:35;2.10;99.90
75442;DHT22;64019;48.312;14.226;2023-12-07T01:41:01;2.10;99.90
75442;DHT22;64019;48.312;14.226;2023-12-07T01:43:27;2.10;99.90
75442;DHT22;64019;48.312;14.226;2023-12-07T01:45:55;2.10;99.90
75442;DHT22;64019;48.312;14.226;2023-12-07T01:48:23;2.10;99.90
75442;DHT22;64019;48.312;14.226;2023-12-07T01:50:50;2.00;99.90
75442;DHT22;64019;48.312;14.226;2023-12-07T01:53:17;2.00;99.90
75442;DHT22;64019;48.312;14.226;2023-12-07T01:55:43;2.00;99.90
75442;DHT22;64019;48.312;14.226;2023-12-07T01:58:10;2.00;99.90
75442;DHT22;64019;48.312;14.226;2023-12-07T02:00:35;2.00;99.90
75442;DHT22;64019;48.312;14.226;2023-12-07T02:03:05;2.00;99.90
75442;DHT22;64019;48.312;14.226;2023-12-07T02:05:31;1.90;99.90
75442;DHT22;64019;48.312;14.226;2023-12-07T02:07:57;1.90;99.90
75442;DHT22;64019;48.312;14.226;2023-12-07T02:10:24;1.90;99.90
75442;DHT22;64019;48.312;14.226;2023-12-07T02:12:51;1.90;99.90
75442;DHT22;64019;48.312;14.226;2023-12-07T02:15:18;1.90;99.90
75442;DHT22;64019;48.312;14.226;2023-12-07T02:20:49;1.80;99.90
75442;DHT22;64019;48.312;14.226;2023-12-07T02:23:18;1.90;99.90
75442;DHT22;64019;48.312;14.226;2023-12-07T02:29:06;1.90;99.90
75442;DHT22;64019;48.312;14.226;2023-12-07T02:31:31;1.90;99.90
75442;DHT22;64019;48.312;14.226;2023-12-07T02:33:57;1.90;99.90
75442;DHT22;64019;48.312;14.226;2023-12-07T02:36:26;1.90;99.90
75442;DHT22;64019;48.312;14.226;2023-12-07T02:38:56;1.90;99.90
75442;DHT22;64019;48.312;14.226;2023-12-07T02:41:24;1.90;99.90
75442;DHT22;64019;48.312;14.226;2023-12-07T02:43:50;1.90;99.90
75442;DHT22;64019;48.312;14.226;2023-12-07T02:46:18;1.90;99.90
75442;DHT22;64019;48.312;14.226;2023-12-07T02:48:43;1.90;99.90
75442;DHT22;64019;48.312;14.226;2023-12-07T02:51:09;1.90;99.90
75442;DHT22;64019;48.312;14.226;2023-12-07T02:53:35;1.90;99.90
75442;DHT22;64019;48.312;14.226;2023-12-07T02:56:01;1.80;99.90
75442;DHT22;64019;48.312;14.226;2023-12-07T02:58:26;1.90;99.90
75442;DHT22;64019;48.312;14.226;2023-12-07T03:00:52;1.80;99.90
75442;DHT22;64019;48.312;14.226;2023-12-07T03:03:18;1.80;99.90
75442;DHT22;64019;48.312;14.226;2023-12-07T03:05:43;1.80;99.90
75442;DHT22;64019;48.312;14.226;2023-12-07T03:08:09;1.90;99.90
75442;DHT22;64019;48.312;14.226;2023-12-07T03:10:35;1.80;99.90
75442;DHT22;64019;48.312;14.226;2023-12-07T03:13:00;1.90;99.90
75442;DHT22;64019;48.312;14.226;2023-12-07T03:15:26;2.00;99.90
75442;DHT22;64019;48.312;14.226;2023-12-07T03:17:52;2.00;99.90
75442;DHT22;64019;48.312;14.226;2023-12-07T03:20:17;2.00;99.90
75442;DHT22;64019;48.312;14.226;2023-12-07T03:22:43;2.00;99.90
75442;DHT22;64019;48.312;14.226;2023-12-07T03:25:09;2.00;99.90
75442;DHT22;64019;48.312;14.226;2023-12-07T03:27:34;2.00;99.90
75442;DHT22;64019;48.312;14.226;2023-12-07T03:30:00;2.00;99.90
75442;DHT22;64019;48.312;14.226;2023-12-07T03:32:25;2.00;99.90
75442;DHT22;64019;48.312;14.226;2023-12-07T03:34:51;1.90;99.90
75442;DHT22;64019;48.312;14.226;2023-12-07T03:37:17;1.90;99.90
75442;DHT22;64019;48.312;14.226;2023-12-07T03:39:42;1.90;99.90
75442;DHT22;64019;48.312;14.226;2023-12-07T03:42:08;1.90;99.90
75442;DHT22;64019;48.312;14.226;2023-12-07T03:44:34;1.90;99.90
75442;DHT22;64019;48.312;14.226;2023-12-07T03:46:59;1.90;99.90
75442;DHT22;64019;48.312;14.226;2023-12-07T03:49:26;1.90;99.90
75442;DHT22;64019;48.312;14.226;2023-12-07T03:51:51;1.90;99.90
75442;DHT22;64019;48.312;14.226;2023-12-07T03:54:17;1.90;99.90
75442;DHT22;64019;48.312;14.226;2023-12-07T03:56:43;1.90;99.90
75442;DHT22;64019;48.312;14.226;2023-12-07T03:59:08;1.90;99.90
75442;DHT22;64019;48.312;14.226;2023-12-07T04:01:34;1.90;99.90
75442;DHT22;64019;48.312;14.226;2023-12-07T04:04:00;2.00;99.90
75442;DHT22;64019;48.312;14.226;2023-12-07T04:06:26;2.00;99.90
75442;DHT22;64019;48.312;14.226;2023-12-07T04:08:52;2.00;99.90
75442;DHT22;64019;48.312;14.226;2023-12-07T04:11:18;2.00;99.90
75442;DHT22;64019;48.312;14.226;2023-12-07T04:13:44;2.00;99.90
75442;DHT22;64019;48.312;14.226;2023-12-07T04:16:10;2.10;99.90
75442;DHT22;64019;48.312;14.226;2023-12-07T04:18:36;2.00;99.90
75442;DHT22;64019;48.312;14.226;2023-12-07T04:21:02;2.00;99.90
75442;DHT22;64019;48.312;14.226;2023-12-07T04:23:28;2.00;99.90
75442;DHT22;64019;48.312;14.226;2023-12-07T04:25:54;2.10;99.90
75442;DHT22;64019;48.312;14.226;2023-12-07T04:28:20;2.00;99.90
75442;DHT22;64019;48.312;14.226;2023-12-07T04:30:45;2.00;99.90
75442;DHT22;64019;48.312;14.226;2023-12-07T04:33:11;2.00;99.90
75442;DHT22;64019;48.312;14.226;2023-12-07T04:35:37;2.00;99.90
75442;DHT22;64019;48.312;14.226;2023-12-07T04:38:02;1.90;99.90
75442;DHT22;64019;48.312;14.226;2023-12-07T04:40:28;1.90;99.90
75442;DHT22;64019;48.312;14.226;2023-12-07T04:42:54;1.90;99.90
75442;DHT22;64019;48.312;14.226;2023-12-07T04:45:19;1.90;99.90
75442;DHT22;64019;48.312;14.226;2023-12-07T04:47:45;1.90;99.90
75442;DHT22;64019;48.312;14.226;2023-12-07T04:50:11;1.90;99.90
75442;DHT22;64019;48.312;14.226;2023-12-07T04:52:37;1.90;99.90
75442;DHT22;64019;48.312;14.226;2023-12-07T04:55:04;1.90;99.90
75442;DHT22;64019;48.312;14.226;2023-12-07T04:57:33;1.90;99.90
75442;DHT22;64019;48.312;14.226;2023-12-07T04:59:59;1.80;99.90
75442;DHT22;64019;48.312;14.226;2023-12-07T05:02:24;1.80;99.90
75442;DHT22;64019;48.312;14.226;2023-12-07T05:04:50;1.80;99.90
75442;DHT22;64019;48.312;14.226;2023-12-07T05:07:16;1.80;99.90
75442;DHT22;64019;48.312;14.226;2023-12-07T05:09:42;1.80;99.90
75442;DHT22;64019;48.312;14.226;2023-12-07T05:12:08;1.80;99.90
75442;DHT22;64019;48.312;14.226;2023-12-07T05:14:34;1.80;99.90
75442;DHT22;64019;48.312;14.226;2023-12-07T05:17:00;1.80;99.90
75442;DHT22;64019;48.312;14.226;2023-12-07T06:06:29;1.80;99.90
75442;DHT22;64019;48.312;14.226;2023-12-07T06:08:56;1.80;99.90
75442;DHT22;64019;48.312;14.226;2023-12-07T06:11:24;1.80;99.90
75442;DHT22;64019;48.312;14.226;2023-12-07T06:13:52;1.80;99.90
75442;DHT22;64019;48.312;14.226;2023-12-07T06:16:18;1.80;99.90
75442;DHT22;64019;48.312;14.226;2023-12-07T06:18:45;1.90;99.90
75442;DHT22;64019;48.312;14.226;2023-12-07T06:21:13;1.90;99.90
75442;DHT22;64019;48.312;14.226;2023-12-07T06:23:39;1.90;99.90
75442;DHT22;64019;48.312;14.226;2023-12-07T06:26:06;2.00;99.90
75442;DHT22;64019;48.312;14.226;2023-12-07T06:28:32;1.90;99.90
75442;DHT22;64019;48.312;14.226;2023-12-07T06:30:59;1.90;99.90
75442;DHT22;64019;48.312;14.226;2023-12-07T06:33:25;1.90;99.90
75442;DHT22;64019;48.312;14.226;2023-12-07T06:35:50;1.90;99.90
75442;DHT22;64019;48.312;14.226;2023-12-07T06:38:16;1.90;99.90
75442;DHT22;64019;48.312;14.226;2023-12-07T06:40:42;1.90;99.90
75442;DHT22;64019;48.312;14.226;2023-12-07T06:43:08;1.90;99.90
75442;DHT22;64019;48.312;14.226;2023-12-07T06:45:35;1.90;99.90
75442;DHT22;64019;48.312;14.226;2023-12-07T06:48:00;1.90;99.90
75442;DHT22;64019;48.312;14.226;2023-12-07T06:50:27;1.90;99.90
75442;DHT22;64019;48.312;14.226;2023-12-07T06:52:52;2.00;99.90
75442;DHT22;64019;48.312;14.226;2023-12-07T06:55:18;2.00;99.90
75442;DHT22;64019;48.312;14.226;2023-12-07T06:57:45;2.00;99.90
75442;DHT22;64019;48.312;14.226;2023-12-07T07:00:10;2.00;99.90
75442;DHT22;64019;48.312;14.226;2023-12-07T07:02:38;2.10;99.90
75442;DHT22;64019;48.312;14.226;2023-12-07T07:05:04;2.10;99.90
75442;DHT22;64019;48.312;14.226;2023-12-07T07:07:31;2.00;99.90
75442;DHT22;64019;48.312;14.226;2023-12-07T07:09:57;2.10;99.90
75442;DHT22;64019;48.312;14.226;2023-12-07T07:12:23;2.00;99.90
75442;DHT22;64019;48.312;14.226;2023-12-07T07:14:49;2.00;99.90
75442;DHT22;64019;48.312;14.226;2023-12-07T07:17:14;2.10;99.90
75442;DHT22;64019;48.312;14.226;2023-12-07T07:19:41;2.10;99.90
75442;DHT22;64019;48.312;14.226;2023-12-07T07:22:07;2.10;99.90
75442;DHT22;64019;48.312;14.226;2023-12-07T07:24:34;2.00;99.90
75442;DHT22;64019;48.312;14.226;2023-12-07T07:27:00;2.10;99.90
75442;DHT22;64019;48.312;14.226;2023-12-07T07:29:26;2.10;99.90
75442;DHT22;64019;48.312;14.226;2023-12-07T07:31:53;2.10;99.90
75442;DHT22;64019;48.312;14.226;2023-12-07T07:34:18;2.00;99.90
75442;DHT22;64019;48.312;14.226;2023-12-07T07:36:44;2.00;99.90
75442;DHT22;64019;48.312;14.226;2023-12-07T07:39:10;2.00;99.90
75442;DHT22;64019;48.312;14.226;2023-12-07T07:41:39;2.00;99.90
75442;DHT22;64019;48.312;14.226;2023-12-07T07:44:04;1.90;99.90
75442;DHT22;64019;48.312;14.226;2023-12-07T07:46:30;1.90;99.90
75442;DHT22;64019;48.312;14.226;2023-12-07T07:48:56;1.80;99.90
75442;DHT22;64019;48.312;14.226;2023-12-07T07:51:22;1.80;99.90
75442;DHT22;64019;48.312;14.226;2023-12-07T07:53:47;1.90;99.90
75442;DHT22;64019;48.312;14.226;2023-12-07T07:56:13;1.90;99.90
75442;DHT22;64019;48.312;14.226;2023-12-07T07:58:39;1.90;99.90
75442;DHT22;64019;48.312;14.226;2023-12-07T08:01:04;1.90;99.90
75442;DHT22;64019;48.312;14.226;2023-12-07T08:03:30;2.00;99.90
75442;DHT22;64019;48.312;14.226;2023-12-07T08:05:56;2.00;99.90
75442;DHT22;64019;48.312;14.226;2023-12-07T08:08:22;2.00;99.90
75442;DHT22;64019;48.312;14.226;2023-12-07T08:10:47;2.10;99.90
75442;DHT22;64019;48.312;14.226;2023-12-07T08:13:13;2.00;99.90
75442;DHT22;64019;48.312;14.226;2023-12-07T08:15:39;2.00;99.90
75442;DHT22;64019;48.312;14.226;2023-12-07T08:18:04;2.00;99.90
75442;DHT22;64019;48.312;14.226;2023-12-07T08:20:30;2.10;99.90
75442;DHT22;64019;48.312;14.226;2023-12-07T08:22:56;2.20;99.90
75442;DHT22;64019;48.312;14.226;2023-12-07T08:25:22;2.20;99.90
75442;DHT22;64019;48.312;14.226;2023-12-07T08:27:47;2.30;99.90
75442;DHT22;64019;48.312;14.226;2023-12-07T08:30:13;2.30;99.90
75442;DHT22;64019;48.312;14.226;2023-12-07T08:32:39;2.30;99.90
75442;DHT22;64019;48.312;14.226;2023-12-07T08:35:05;2.40;99.90
75442;DHT22;64019;48.312;14.226;2023-12-07T08:37:32;2.30;99.90
75442;DHT22;64019;48.312;14.226;2023-12-07T08:39:58;2.40;99.90
75442;DHT22;64019;48.312;14.226;2023-12-07T08:42:24;2.50;99.90
75442;DHT22;64019;48.312;14.226;2023-12-07T08:44:52;2.50;99.90
75442;DHT22;64019;48.312;14.226;2023-12-07T08:47:18;2.50;99.90
75442;DHT22;64019;48.312;14.226;2023-12-07T08:49:44;2.40;99.90
75442;DHT22;64019;48.312;14.226;2023-12-07T08:52:11;2.40;99.90
75442;DHT22;64019;48.312;14.226;2023-12-07T08:54:37;2.40;99.90
75442;DHT22;64019;48.312;14.226;2023-12-07T08:57:03;2.40;99.90
75442;DHT22;64019;48.312;14.226;2023-12-07T08:59:29;2.40;99.90
75442;DHT22;64019;48.312;14.226;2023-12-07T09:01:55;2.40;99.90
75442;DHT22;64019;48.312;14.226;2023-12-07T09:04:21;2.50;99.90
75442;DHT22;64019;48.312;14.226;2023-12-07T09:06:47;2.50;99.90
75442;DHT22;64019;48.312;14.226;2023-12-07T09:09:14;2.50;99.90
75442;DHT22;64019;48.312;14.226;2023-12-07T09:11:40;2.50;99.90
75442;DHT22;64019;48.312;14.226;2023-12-07T09:14:05;2.50;99.90
75442;DHT22;64019;48.312;14.226;2023-12-07T09:16:31;2.50;99.90
75442;DHT22;64019;48.312;14.226;2023-12-07T09:18:56;2.50;99.90
75442;DHT22;64019;48.312;14.226;2023-12-07T09:21:22;2.60;99.90
75442;DHT22;64019;48.312;14.226;2023-12-07T09:23:48;2.50;99.90
75442;DHT22;64019;48.312;14.226;2023-12-07T09:26:13;2.50;99.90
75442;DHT22;64019;48.312;14.226;2023-12-07T09:28:39;2.50;99.90
75442;DHT22;64019;48.312;14.226;2023-12-07T09:31:05;2.60;99.90
75442;DHT22;64019;48.312;14.226;2023-12-07T09:33:31;2.50;99.90
75442;DHT22;64019;48.312;14.226;2023-12-07T09:35:57;2.50;99.90
75442;DHT22;64019;48.312;14.226;2023-12-07T09:38:22;2.50;99.90
75442;DHT22;64019;48.312;14.226;2023-12-07T09:40:53;2.60;99.90
75442;DHT22;64019;48.312;14.226;2023-12-07T09:43:18;2.60;99.90
75442;DHT22;64019;48.312;14.226;2023-12-07T09:45:44;2.60;99.90
75442;DHT22;64019;48.312;14.226;2023-12-07T09:48:10;2.60;99.90
75442;DHT22;64019;48.312;14.226;2023-12-07T09:50:36;2.60;99.90
75442;DHT22;64019;48.312;14.226;2023-12-07T09:53:02;2.60;99.90
75442;DHT22;64019;48.312;14.226;2023-12-07T09:55:28;2.60;99.90
75442;DHT22;64019;48.312;14.226;2023-12-07T09:57:54;2.60;99.90
75442;DHT22;64019;48.312;14.226;2023-12-07T10:00:22;2.70;99.90
75442;DHT22;64019;48.312;14.226;2023-12-07T10:02:48;2.70;99.90
75442;DHT22;64019;48.312;14.226;2023-12-07T10:05:15;2.70;99.90
75442;DHT22;64019;48.312;14.226;2023-12-07T10:07:46;2.80;99.90
75442;DHT22;64019;48.312;14.226;2023-12-07T10:10:16;2.80;99.90
75442;DHT22;64019;48.312;14.226;2023-12-07T10:15:13;2.80;99.90
75442;DHT22;64019;48.312;14.226;2023-12-07T10:17:53;2.80;99.90
75442;DHT22;64019;48.312;14.226;2023-12-07T10:20:20;2.80;99.90
75442;DHT22;64019;48.312;14.226;2023-12-07T10:23:08;2.90;99.90
75442;DHT22;64019;48.312;14.226;2023-12-07T10:25:38;2.90;99.90
75442;DHT22;64019;48.312;14.226;2023-12-07T10:28:04;2.90;99.90
75442;DHT22;64019;48.312;14.226;2023-12-07T10:30:33;3.00;99.90
75442;DHT22;64019;48.312;14.226;2023-12-07T10:32:59;3.00;99.90
75442;DHT22;64019;48.312;14.226;2023-12-07T10:35:25;3.10;99.90
75442;DHT22;64019;48.312;14.226;2023-12-07T10:37:51;3.20;99.90
75442;DHT22;64019;48.312;14.226;2023-12-07T10:40:16;3.20;99.90
75442;DHT22;64019;48.312;14.226;2023-12-07T10:42:48;3.20;99.90
75442;DHT22;64019;48.312;14.226;2023-12-07T10:45:14;3.20;99.90
75442;DHT22;64019;48.312;14.226;2023-12-07T10:47:43;3.10;99.90
75442;DHT22;64019;48.312;14.226;2023-12-07T10:50:10;3.10;99.90
75442;DHT22;64019;48.312;14.226;2023-12-07T10:52:52;3.10;99.90
75442;DHT22;64019;48.312;14.226;2023-12-07T10:55:21;3.10;99.90
75442;DHT22;64019;48.312;14.226;2023-12-07T10:57:52;3.10;99.90
75442;DHT22;64019;48.312;14.226;2023-12-07T11:00:19;3.10;99.90
75442;DHT22;64019;48.312;14.226;2023-12-07T11:02:50;3.10;99.90
75442;DHT22;64019;48.312;14.226;2023-12-07T11:05:20;3.20;99.90
75442;DHT22;64019;48.312;14.226;2023-12-07T11:08:07;3.20;99.90
75442;DHT22;64019;48.312;14.226;2023-12-07T11:10:48;3.30;99.90
75442;DHT22;64019;48.312;14.226;2023-12-07T11:13:17;3.30;99.90
75442;DHT22;64019;48.312;14.226;2023-12-07T11:15:44;3.30;99.90
75442;DHT22;64019;48.312;14.226;2023-12-07T11:18:11;3.30;99.90
75442;DHT22;64019;48.312;14.226;2023-12-07T11:23:10;3.30;99.90
75442;DHT22;64019;48.312;14.226;2023-12-07T11:25:39;3.30;99.90
75442;DHT22;64019;48.312;14.226;2023-12-07T11:28:06;3.40;99.90
75442;DHT22;64019;48.312;14.226;2023-12-07T11:30:35;3.40;99.90
75442;DHT22;64019;48.312;14.226;2023-12-07T11:33:03;3.40;99.90
75442;DHT22;64019;48.312;14.226;2023-12-07T11:35:29;3.50;99.90
75442;DHT22;64019;48.312;14.226;2023-12-07T11:38:06;3.60;99.90
75442;DHT22;64019;48.312;14.226;2023-12-07T11:40:36;3.60;99.90
75442;DHT22;64019;48.312;14.226;2023-12-07T11:43:02;3.70;99.90
75442;DHT22;64019;48.312;14.226;2023-12-07T11:45:38;3.70;99.90
75442;DHT22;64019;48.312;14.226;2023-12-07T11:48:11;3.60;99.90
75442;DHT22;64019;48.312;14.226;2023-12-07T11:50:53;3.70;99.90
75442;DHT22;64019;48.312;14.226;2023-12-07T11:53:23;3.80;99.90
75442;DHT22;64019;48.312;14.226;2023-12-07T11:55:50;3.90;99.90
75442;DHT22;64019;48.312;14.226;2023-12-07T11:58:16;4.00;99.90
75442;DHT22;64019;48.312;14.226;2023-12-07T12:00:41;4.00;99.90
75442;DHT22;64019;48.312;14.226;2023-12-07T12:03:08;4.10;99.90
75442;DHT22;64019;48.312;14.226;2023-12-07T12:05:34;4.20;99.90
75442;DHT22;64019;48.312;14.226;2023-12-07T12:08:00;4.20;99.90
75442;DHT22;64019;48.312;14.226;2023-12-07T12:10:25;4.30;99.90
75442;DHT22;64019;48.312;14.226;2023-12-07T12:12:53;4.40;99.90
75442;DHT22;64019;48.312;14.226;2023-12-07T12:15:20;4.40;99.90
75442;DHT22;64019;48.312;14.226;2023-12-07T12:17:46;4.40;99.90
75442;DHT22;64019;48.312;14.226;2023-12-07T12:20:13;4.50;99.90
75442;DHT22;64019;48.312;14.226;2023-12-07T12:22:43;4.50;99.90
75442;DHT22;64019;48.312;14.226;2023-12-07T12:25:09;4.60;99.90
75442;DHT22;64019;48.312;14.226;2023-12-07T12:27:36;4.60;99.90
75442;DHT22;64019;48.312;14.226;2023-12-07T12:30:02;4.40;99.90
75442;DHT22;64019;48.312;14.226;2023-12-07T12:32:46;4.30;99.90
75442;DHT22;64019;48.312;14.226;2023-12-07T12:35:13;4.30;99.90
75442;DHT22;64019;48.312;14.226;2023-12-07T12:37:41;4.20;99.90
75442;DHT22;64019;48.312;14.226;2023-12-07T12:40:08;4.20;99.90
75442;DHT22;64019;48.312;14.226;2023-12-07T12:42:34;4.10;99.90
75442;DHT22;64019;48.312;14.226;2023-12-07T12:45:07;4.10;99.90
75442;DHT22;64019;48.312;14.226;2023-12-07T12:47:34;4.10;99.90
75442;DHT22;64019;48.312;14.226;2023-12-07T12:50:01;4.10;99.90
75442;DHT22;64019;48.312;14.226;2023-12-07T12:52:29;3.90;99.90
75442;DHT22;64019;48.312;14.226;2023-12-07T12:54:56;4.00;99.90
75442;DHT22;64019;48.312;14.226;2023-12-07T12:57:22;4.00;99.90
75442;DHT22;64019;48.312;14.226;2023-12-07T12:59:48;3.90;99.90
75442;DHT22;64019;48.312;14.226;2023-12-07T13:02:15;4.00;99.90
75442;DHT22;64019;48.312;14.226;2023-12-07T13:04:41;3.90;99.90
75442;DHT22;64019;48.312;14.226;2023-12-07T13:07:06;3.80;99.90
75442;DHT22;64019;48.312;14.226;2023-12-07T13:09:32;3.80;99.90
75442;DHT22;64019;48.312;14.226;2023-12-07T13:11:58;3.80;99.90
75442;DHT22;64019;48.312;14.226;2023-12-07T13:14:24;3.80;99.90
75442;DHT22;64019;48.312;14.226;2023-12-07T13:16:50;3.70;99.90
75442;DHT22;64019;48.312;14.226;2023-12-07T13:19:15;3.70;99.90
75442;DHT22;64019;48.312;14.226;2023-12-07T13:21:41;3.70;99.90
75442;DHT22;64019;48.312;14.226;2023-12-07T13:24:07;3.60;99.90
75442;DHT22;64019;48.312;14.226;2023-12-07T13:26:38;3.60;99.90
75442;DHT22;64019;48.312;14.226;2023-12-07T13:29:04;3.60;99.90
75442;DHT22;64019;48.312;14.226;2023-12-07T13:31:30;3.70;99.90
75442;DHT22;64019;48.312;14.226;2023-12-07T13:33:55;3.80;99.90
75442;DHT22;64019;48.312;14.226;2023-12-07T13:36:22;3.80;99.90
75442;DHT22;64019;48.312;14.226;2023-12-07T13:38:49;3.90;99.90
75442;DHT22;64019;48.312;14.226;2023-12-07T13:41:15;3.90;99.90
75442;DHT22;64019;48.312;14.226;2023-12-07T13:43:41;3.80;99.90
75442;DHT22;64019;48.312;14.226;2023-12-07T13:46:07;3.60;99.90
75442;DHT22;64019;48.312;14.226;2023-12-07T13:48:33;3.60;99.90
75442;DHT22;64019;48.312;14.226;2023-12-07T13:50:59;3.60;99.90
75442;DHT22;64019;48.312;14.226;2023-12-07T13:53:25;3.50;99.90
75442;DHT22;64019;48.312;14.226;2023-12-07T13:55:50;3.50;99.90
75442;DHT22;64019;48.312;14.226;2023-12-07T13:58:17;3.40;99.90
75442;DHT22;64019;48.312;14.226;2023-12-07T14:00:42;3.40;99.90
75442;DHT22;64019;48.312;14.226;2023-12-07T14:03:11;3.40;99.90
75442;DHT22;64019;48.312;14.226;2023-12-07T14:05:38;3.30;99.90
75442;DHT22;64019;48.312;14.226;2023-12-07T14:08:05;3.20;99.90
75442;DHT22;64019;48.312;14.226;2023-12-07T14:10:31;3.20;99.90
75442;DHT22;64019;48.312;14.226;2023-12-07T14:12:57;3.20;99.90
75442;DHT22;64019;48.312;14.226;2023-12-07T14:15:22;3.10;99.90
75442;DHT22;64019;48.312;14.226;2023-12-07T14:17:48;3.20;99.90
75442;DHT22;64019;48.312;14.226;2023-12-07T14:20:14;3.10;99.90
75442;DHT22;64019;48.312;14.226;2023-12-07T14:22:40;3.00;99.90
75442;DHT22;64019;48.312;14.226;2023-12-07T14:25:06;3.00;99.90
75442;DHT22;64019;48.312;14.226;2023-12-07T14:27:33;2.90;99.90
75442;DHT22;64019;48.312;14.226;2023-12-07T14:29:59;2.90;99.90
75442;DHT22;64019;48.312;14.226;2023-12-07T14:32:24;2.80;99.90
75442;DHT22;64019;48.312;14.226;2023-12-07T14:34:50;2.70;99.90
75442;DHT22;64019;48.312;14.226;2023-12-07T14:37:17;2.60;99.90
75442;DHT22;64019;48.312;14.226;2023-12-07T14:39:42;2.60;99.90
75442;DHT22;64019;48.312;14.226;2023-12-07T14:42:09;2.50;99.90
75442;DHT22;64019;48.312;14.226;2023-12-07T14:44:36;2.50;99.90
75442;DHT22;64019;48.312;14.226;2023-12-07T14:47:02;2.40;99.90
75442;DHT22;64019;48.312;14.226;2023-12-07T14:49:28;2.30;99.90
75442;DHT22;64019;48.312;14.226;2023-12-07T14:51:54;2.20;99.90
75442;DHT22;64019;48.312;14.226;2023-12-07T14:54:24;2.10;99.90
75442;DHT22;64019;48.312;14.226;2023-12-07T14:56:50;2.00;99.90
75442;DHT22;64019;48.312;14.226;2023-12-07T14:59:16;1.90;99.90
75442;DHT22;64019;48.312;14.226;2023-12-07T15:01:42;1.80;99.90
75442;DHT22;64019;48.312;14.226;2023-12-07T15:04:08;1.70;99.90
75442;DHT22;64019;48.312;14.226;2023-12-07T15:06:34;1.70;99.90
75442;DHT22;64019;48.312;14.226;2023-12-07T15:09:00;1.60;99.90
75442;DHT22;64019;48.312;14.226;2023-12-07T15:11:28;1.60;99.90
75442;DHT22;64019;48.312;14.226;2023-12-07T15:13:54;1.50;99.90
75442;DHT22;64019;48.312;14.226;2023-12-07T15:16:19;1.50;99.90
75442;DHT22;64019;48.312;14.226;2023-12-07T15:18:45;1.50;99.90
75442;DHT22;64019;48.312;14.226;2023-12-07T15:21:14;1.40;99.90
75442;DHT22;64019;48.312;14.226;2023-12-07T15:23:41;1.40;99.90
75442;DHT22;64019;48.312;14.226;2023-12-07T15:26:11;1.40;99.90
75442;DHT22;64019;48.312;14.226;2023-12-07T15:28:38;1.30;99.90
75442;DHT22;64019;48.312;14.226;2023-12-07T15:31:05;1.30;99.90
75442;DHT22;64019;48.312;14.226;2023-12-07T15:33:31;1.30;99.90
75442;DHT22;64019;48.312;14.226;2023-12-07T15:35:57;1.20;99.90
75442;DHT22;64019;48.312;14.226;2023-12-07T15:38:23;1.30;99.90
75442;DHT22;64019;48.312;14.226;2023-12-07T15:40:49;1.20;99.90
75442;DHT22;64019;48.312;14.226;2023-12-07T15:43:14;1.00;99.90
75442;DHT22;64019;48.312;14.226;2023-12-07T15:45:40;1.00;99.90
75442;DHT22;64019;48.312;14.226;2023-12-07T15:48:06;1.00;99.90
75442;DHT22;64019;48.312;14.226;2023-12-07T15:50:32;1.00;99.90
75442;DHT22;64019;48.312;14.226;2023-12-07T15:52:57;0.90;99.90
75442;DHT22;64019;48.312;14.226;2023-12-07T15:55:23;0.90;99.90
75442;DHT22;64019;48.312;14.226;2023-12-07T15:57:49;0.80;99.90
75442;DHT22;64019;48.312;14.226;2023-12-07T16:00:14;0.80;99.90
75442;DHT22;64019;48.312;14.226;2023-12-07T16:02:40;0.70;99.90
75442;DHT22;64019;48.312;14.226;2023-12-07T16:05:06;0.50;99.90
75442;DHT22;64019;48.312;14.226;2023-12-07T16:07:32;0.50;99.90
75442;DHT22;64019;48.312;14.226;2023-12-07T16:09:58;0.50;99.90
75442;DHT22;64019;48.312;14.226;2023-12-07T16:12:23;0.40;99.90
75442;DHT22;64019;48.312;14.226;2023-12-07T16:14:49;0.30;99.90
75442;DHT22;64019;48.312;14.226;2023-12-07T16:17:16;0.40;99.90
75442;DHT22;64019;48.312;14.226;2023-12-07T16:19:42;0.30;99.90
75442;DHT22;64019;48.312;14.226;2023-12-07T16:22:08;0.10;99.90
75442;DHT22;64019;48.312;14.226;2023-12-07T16:24:34;0.00;99.90